sensor_id;sensor_type;location;lat;lon;timestamp;P1;durP1;ratioP1;P2;durP2;ratioP2
21418;SDS011;10870;51.384;10.316;2023-02-05T00:00:17;13.95;;;8.95;;
21418;SDS011;10870;51.384;10.316;2023-02-05T00:02:19;13.32;;;8.90;;
21418;SDS011;10870;51.384;10.316;2023-02-05T00:04:21;12.35;;;9.48;;
21418;SDS011;10870;51.384;10.316;2023-02-05T00:06:22;13.73;;;8.30;;
21418;SDS011;10870;51.384;10.316;2023-02-05T00:08:26;11.88;;;8.35;;
21418;SDS011;10870;51.384;10.316;2023-02-05T00:10:32;16.55;;;9.02;;
21418;SDS011;10870;51.384;10.316;2023-02-05T00:12:33;11.75;;;9.02;;
21418;SDS011;10870;51.384;10.316;2023-02-05T00:14:35;12.25;;;8.63;;
21418;SDS011;10870;51.384;10.316;2023-02-05T00:16:39;14.73;;;9.43;;
21418;SDS011;10870;51.384;10.316;2023-02-05T00:18:40;14.50;;;9.07;;
21418;SDS011;10870;51.384;10.316;2023-02-05T00:20:44;12.30;;;8.80;;
21418;SDS011;10870;51.384;10.316;2023-02-05T00:22:46;19.80;;;11.13;;
21418;SDS011;10870;51.384;10.316;2023-02-05T00:24:47;13.93;;;10.82;;
21418;SDS011;10870;51.384;10.316;2023-02-05T00:26:50;14.80;;;9.70;;
21418;SDS011;10870;51.384;10.316;2023-02-05T00:28:53;13.98;;;9.57;;
21418;SDS011;10870;51.384;10.316;2023-02-05T00:30:55;14.48;;;9.38;;
21418;SDS011;10870;51.384;10.316;2023-02-05T00:32:56;18.80;;;10.98;;
21418;SDS011;10870;51.384;10.316;2023-02-05T00:34:58;16.33;;;10.20;;
21418;SDS011;10870;51.384;10.316;2023-02-05T00:36:59;15.52;;;10.75;;
21418;SDS011;10870;51.384;10.316;2023-02-05T00:39:00;14.27;;;11.13;;
21418;SDS011;10870;51.384;10.316;2023-02-05T00:41:04;15.45;;;11.75;;
21418;SDS011;10870;51.384;10.316;2023-02-05T00:43:06;16.83;;;11.15;;
21418;SDS011;10870;51.384;10.316;2023-02-05T00:45:08;18.38;;;11.73;;
21418;SDS011;10870;51.384;10.316;2023-02-05T00:47:09;17.23;;;11.30;;
21418;SDS011;10870;51.384;10.316;2023-02-05T00:49:13;17.77;;;11.95;;
21418;SDS011;10870;51.384;10.316;2023-02-05T00:51:15;20.73;;;13.65;;
21418;SDS011;10870;51.384;10.316;2023-02-05T00:53:19;16.98;;;12.30;;
21418;SDS011;10870;51.384;10.316;2023-02-05T00:55:20;19.88;;;12.20;;
21418;SDS011;10870;51.384;10.316;2023-02-05T00:57:22;20.00;;;13.23;;
21418;SDS011;10870;51.384;10.316;2023-02-05T00:59:27;20.13;;;12.73;;
21418;SDS011;10870;51.384;10.316;2023-02-05T01:01:28;16.50;;;13.48;;
21418;SDS011;10870;51.384;10.316;2023-02-05T01:03:32;17.77;;;11.80;;
21418;SDS011;10870;51.384;10.316;2023-02-05T01:05:33;15.48;;;11.30;;
21418;SDS011;10870;51.384;10.316;2023-02-05T01:07:35;16.80;;;10.30;;
21418;SDS011;10870;51.384;10.316;2023-02-05T01:09:41;14.45;;;9.18;;
21418;SDS011;10870;51.384;10.316;2023-02-05T01:11:43;14.68;;;9.52;;
21418;SDS011;10870;51.384;10.316;2023-02-05T01:13:44;14.32;;;9.32;;
21418;SDS011;10870;51.384;10.316;2023-02-05T01:15:46;14.73;;;8.82;;
21418;SDS011;10870;51.384;10.316;2023-02-05T01:17:50;14.90;;;9.90;;
21418;SDS011;10870;51.384;10.316;2023-02-05T01:19:54;14.55;;;9.88;;
21418;SDS011;10870;51.384;10.316;2023-02-05T01:21:58;13.50;;;9.27;;
21418;SDS011;10870;51.384;10.316;2023-02-05T01:23:59;11.98;;;8.23;;
21418;SDS011;10870;51.384;10.316;2023-02-05T01:26:00;12.00;;;7.68;;
21418;SDS011;10870;51.384;10.316;2023-02-05T01:28:04;12.63;;;7.55;;
21418;SDS011;10870;51.384;10.316;2023-02-05T01:30:06;11.13;;;7.55;;
21418;SDS011;10870;51.384;10.316;2023-02-05T01:32:08;9.77;;;6.63;;
21418;SDS011;10870;51.384;10.316;2023-02-05T01:34:09;12.35;;;6.78;;
21418;SDS011;10870;51.384;10.316;2023-02-05T01:36:13;9.10;;;6.30;;
21418;SDS011;10870;51.384;10.316;2023-02-05T01:38:15;9.52;;;6.53;;
21418;SDS011;10870;51.384;10.316;2023-02-05T01:40:20;9.65;;;5.60;;
21418;SDS011;10870;51.384;10.316;2023-02-05T01:42:26;7.68;;;5.53;;
21418;SDS011;10870;51.384;10.316;2023-02-05T01:44:28;7.00;;;5.40;;
21418;SDS011;10870;51.384;10.316;2023-02-05T01:46:30;8.40;;;5.68;;
21418;SDS011;10870;51.384;10.316;2023-02-05T01:48:35;8.20;;;5.45;;
21418;SDS011;10870;51.384;10.316;2023-02-05T01:50:39;6.68;;;5.70;;
21418;SDS011;10870;51.384;10.316;2023-02-05T01:52:44;9.32;;;6.00;;
21418;SDS011;10870;51.384;10.316;2023-02-05T01:54:48;7.95;;;5.70;;
21418;SDS011;10870;51.384;10.316;2023-02-05T01:56:56;9.40;;;6.13;;
21418;SDS011;10870;51.384;10.316;2023-02-05T02:01:31;7.67;;;5.27;;
21418;SDS011;10870;51.384;10.316;2023-02-05T02:03:32;12.82;;;9.95;;
21418;SDS011;10870;51.384;10.316;2023-02-05T02:05:36;20.67;;;17.73;;
21418;SDS011;10870;51.384;10.316;2023-02-05T02:07:41;20.60;;;18.40;;
21418;SDS011;10870;51.384;10.316;2023-02-05T02:09:46;23.10;;;17.98;;
21418;SDS011;10870;51.384;10.316;2023-02-05T02:11:51;21.20;;;16.65;;
21418;SDS011;10870;51.384;10.316;2023-02-05T02:13:54;21.58;;;16.10;;
21418;SDS011;10870;51.384;10.316;2023-02-05T02:15:56;16.23;;;12.68;;
21418;SDS011;10870;51.384;10.316;2023-02-05T02:18:01;19.63;;;13.25;;
21418;SDS011;10870;51.384;10.316;2023-02-05T02:20:32;18.08;;;12.10;;
21418;SDS011;10870;51.384;10.316;2023-02-05T02:22:56;18.52;;;11.40;;
21418;SDS011;10870;51.384;10.316;2023-02-05T02:25:04;13.63;;;9.15;;
21418;SDS011;10870;51.384;10.316;2023-02-05T02:31:39;14.88;;;8.93;;
21418;SDS011;10870;51.384;10.316;2023-02-05T02:38:16;13.18;;;10.02;;
21418;SDS011;10870;51.384;10.316;2023-02-05T02:40:21;19.23;;;12.68;;
21418;SDS011;10870;51.384;10.316;2023-02-05T02:42:30;16.80;;;10.48;;
21418;SDS011;10870;51.384;10.316;2023-02-05T02:44:45;14.43;;;9.82;;
21418;SDS011;10870;51.384;10.316;2023-02-05T02:46:53;13.65;;;9.90;;
21418;SDS011;10870;51.384;10.316;2023-02-05T02:48:57;16.63;;;10.02;;
21418;SDS011;10870;51.384;10.316;2023-02-05T02:51:04;16.45;;;9.68;;
21418;SDS011;10870;51.384;10.316;2023-02-05T02:53:16;14.30;;;9.38;;
21418;SDS011;10870;51.384;10.316;2023-02-05T02:55:19;17.67;;;9.65;;
21418;SDS011;10870;51.384;10.316;2023-02-05T02:57:21;11.30;;;8.77;;
21418;SDS011;10870;51.384;10.316;2023-02-05T02:59:25;13.73;;;9.50;;
21418;SDS011;10870;51.384;10.316;2023-02-05T03:01:31;14.80;;;10.02;;
21418;SDS011;10870;51.384;10.316;2023-02-05T03:03:37;14.18;;;8.77;;
21418;SDS011;10870;51.384;10.316;2023-02-05T03:05:41;14.32;;;9.65;;
21418;SDS011;10870;51.384;10.316;2023-02-05T03:07:46;15.95;;;9.95;;
21418;SDS011;10870;51.384;10.316;2023-02-05T03:09:54;16.67;;;9.68;;
21418;SDS011;10870;51.384;10.316;2023-02-05T03:11:58;15.20;;;9.75;;
21418;SDS011;10870;51.384;10.316;2023-02-05T03:14:01;14.80;;;10.07;;
21418;SDS011;10870;51.384;10.316;2023-02-05T03:16:05;15.55;;;10.70;;
21418;SDS011;10870;51.384;10.316;2023-02-05T03:18:07;13.02;;;10.35;;
21418;SDS011;10870;51.384;10.316;2023-02-05T03:20:10;14.30;;;9.70;;
21418;SDS011;10870;51.384;10.316;2023-02-05T03:22:13;14.43;;;10.60;;
21418;SDS011;10870;51.384;10.316;2023-02-05T03:24:14;15.05;;;11.10;;
21418;SDS011;10870;51.384;10.316;2023-02-05T03:28:24;16.08;;;11.18;;
21418;SDS011;10870;51.384;10.316;2023-02-05T03:30:30;15.60;;;10.45;;
21418;SDS011;10870;51.384;10.316;2023-02-05T03:34:40;15.38;;;9.77;;
21418;SDS011;10870;51.384;10.316;2023-02-05T03:41:29;14.85;;;9.50;;
21418;SDS011;10870;51.384;10.316;2023-02-05T03:44:06;14.52;;;10.40;;
21418;SDS011;10870;51.384;10.316;2023-02-05T03:52:47;17.08;;;10.27;;
21418;SDS011;10870;51.384;10.316;2023-02-05T03:54:51;16.73;;;10.85;;
21418;SDS011;10870;51.384;10.316;2023-02-05T03:59:32;14.23;;;10.32;;
21418;SDS011;10870;51.384;10.316;2023-02-05T04:01:36;15.38;;;10.68;;
21418;SDS011;10870;51.384;10.316;2023-02-05T04:03:38;13.73;;;9.98;;
21418;SDS011;10870;51.384;10.316;2023-02-05T04:05:39;14.07;;;10.07;;
21418;SDS011;10870;51.384;10.316;2023-02-05T04:07:41;13.98;;;9.75;;
21418;SDS011;10870;51.384;10.316;2023-02-05T04:09:42;13.20;;;8.65;;
21418;SDS011;10870;51.384;10.316;2023-02-05T04:11:44;12.93;;;8.82;;
21418;SDS011;10870;51.384;10.316;2023-02-05T04:13:48;16.80;;;8.60;;
21418;SDS011;10870;51.384;10.316;2023-02-05T04:15:51;14.23;;;8.63;;
21418;SDS011;10870;51.384;10.316;2023-02-05T04:17:53;14.38;;;9.02;;
21418;SDS011;10870;51.384;10.316;2023-02-05T04:20:00;13.35;;;9.48;;
21418;SDS011;10870;51.384;10.316;2023-02-05T04:22:04;12.77;;;9.00;;
21418;SDS011;10870;51.384;10.316;2023-02-05T04:24:05;12.48;;;8.60;;
21418;SDS011;10870;51.384;10.316;2023-02-05T04:26:07;13.07;;;8.65;;
21418;SDS011;10870;51.384;10.316;2023-02-05T04:28:09;16.52;;;8.90;;
21418;SDS011;10870;51.384;10.316;2023-02-05T04:30:13;11.48;;;8.07;;
21418;SDS011;10870;51.384;10.316;2023-02-05T04:32:17;12.00;;;8.27;;
21418;SDS011;10870;51.384;10.316;2023-02-05T04:34:18;12.63;;;9.57;;
21418;SDS011;10870;51.384;10.316;2023-02-05T04:36:20;11.57;;;8.30;;
21418;SDS011;10870;51.384;10.316;2023-02-05T04:38:21;13.38;;;7.35;;
21418;SDS011;10870;51.384;10.316;2023-02-05T04:40:23;15.15;;;8.25;;
21418;SDS011;10870;51.384;10.316;2023-02-05T04:42:24;11.48;;;8.38;;
21418;SDS011;10870;51.384;10.316;2023-02-05T04:44:27;9.70;;;8.20;;
21418;SDS011;10870;51.384;10.316;2023-02-05T04:46:28;11.10;;;7.97;;
21418;SDS011;10870;51.384;10.316;2023-02-05T04:48:30;18.40;;;9.07;;
21418;SDS011;10870;51.384;10.316;2023-02-05T04:50:34;17.42;;;8.75;;
21418;SDS011;10870;51.384;10.316;2023-02-05T04:52:38;10.65;;;7.55;;
21418;SDS011;10870;51.384;10.316;2023-02-05T04:54:45;11.35;;;8.38;;
21418;SDS011;10870;51.384;10.316;2023-02-05T04:56:48;13.57;;;9.02;;
21418;SDS011;10870;51.384;10.316;2023-02-05T04:58:50;9.65;;;7.20;;
21418;SDS011;10870;51.384;10.316;2023-02-05T05:00:54;11.27;;;7.53;;
21418;SDS011;10870;51.384;10.316;2023-02-05T05:02:58;10.63;;;7.03;;
21418;SDS011;10870;51.384;10.316;2023-02-05T05:04:59;8.85;;;6.82;;
21418;SDS011;10870;51.384;10.316;2023-02-05T05:07:03;8.52;;;6.07;;
21418;SDS011;10870;51.384;10.316;2023-02-05T05:09:04;8.35;;;6.38;;
21418;SDS011;10870;51.384;10.316;2023-02-05T05:11:10;9.90;;;6.13;;
21418;SDS011;10870;51.384;10.316;2023-02-05T05:13:13;10.88;;;5.75;;
21418;SDS011;10870;51.384;10.316;2023-02-05T05:15:14;8.43;;;6.30;;
21418;SDS011;10870;51.384;10.316;2023-02-05T05:17:21;9.10;;;6.40;;
21418;SDS011;10870;51.384;10.316;2023-02-05T05:19:22;9.95;;;7.32;;
21418;SDS011;10870;51.384;10.316;2023-02-05T05:21:24;10.43;;;8.55;;
21418;SDS011;10870;51.384;10.316;2023-02-05T05:23:28;9.65;;;7.43;;
21418;SDS011;10870;51.384;10.316;2023-02-05T05:25:29;8.95;;;7.63;;
21418;SDS011;10870;51.384;10.316;2023-02-05T05:27:33;9.73;;;8.73;;
21418;SDS011;10870;51.384;10.316;2023-02-05T05:29:35;9.82;;;7.82;;
21418;SDS011;10870;51.384;10.316;2023-02-05T05:31:41;8.80;;;7.57;;
21418;SDS011;10870;51.384;10.316;2023-02-05T05:33:42;13.40;;;7.85;;
21418;SDS011;10870;51.384;10.316;2023-02-05T05:35:46;9.70;;;7.05;;
21418;SDS011;10870;51.384;10.316;2023-02-05T05:37:50;9.63;;;6.65;;
21418;SDS011;10870;51.384;10.316;2023-02-05T05:39:51;13.68;;;6.88;;
21418;SDS011;10870;51.384;10.316;2023-02-05T05:42:12;7.07;;;5.20;;
21418;SDS011;10870;51.384;10.316;2023-02-05T05:44:32;9.18;;;6.65;;
21418;SDS011;10870;51.384;10.316;2023-02-05T05:46:36;8.73;;;6.50;;
21418;SDS011;10870;51.384;10.316;2023-02-05T05:48:42;7.90;;;5.95;;
21418;SDS011;10870;51.384;10.316;2023-02-05T05:50:46;7.25;;;5.60;;
21418;SDS011;10870;51.384;10.316;2023-02-05T05:52:50;7.22;;;5.25;;
21418;SDS011;10870;51.384;10.316;2023-02-05T05:54:54;8.38;;;5.60;;
21418;SDS011;10870;51.384;10.316;2023-02-05T05:56:55;7.18;;;5.20;;
21418;SDS011;10870;51.384;10.316;2023-02-05T05:58:57;8.48;;;6.10;;
21418;SDS011;10870;51.384;10.316;2023-02-05T06:00:58;9.07;;;5.22;;
21418;SDS011;10870;51.384;10.316;2023-02-05T06:03:00;7.22;;;5.63;;
21418;SDS011;10870;51.384;10.316;2023-02-05T06:05:01;7.63;;;5.68;;
21418;SDS011;10870;51.384;10.316;2023-02-05T06:07:05;7.90;;;5.45;;
21418;SDS011;10870;51.384;10.316;2023-02-05T06:09:07;8.10;;;4.93;;
21418;SDS011;10870;51.384;10.316;2023-02-05T06:11:08;8.45;;;5.85;;
21418;SDS011;10870;51.384;10.316;2023-02-05T06:13:10;8.25;;;5.13;;
21418;SDS011;10870;51.384;10.316;2023-02-05T06:15:12;7.57;;;5.03;;
21418;SDS011;10870;51.384;10.316;2023-02-05T06:17:13;7.78;;;5.22;;
21418;SDS011;10870;51.384;10.316;2023-02-05T06:19:15;9.30;;;6.00;;
21418;SDS011;10870;51.384;10.316;2023-02-05T06:21:16;7.28;;;5.97;;
21418;SDS011;10870;51.384;10.316;2023-02-05T06:23:18;7.43;;;5.88;;
21418;SDS011;10870;51.384;10.316;2023-02-05T06:25:19;6.38;;;5.22;;
21418;SDS011;10870;51.384;10.316;2023-02-05T06:27:23;9.50;;;6.18;;
21418;SDS011;10870;51.384;10.316;2023-02-05T06:29:24;9.35;;;5.93;;
21418;SDS011;10870;51.384;10.316;2023-02-05T06:31:27;9.15;;;6.40;;
21418;SDS011;10870;51.384;10.316;2023-02-05T06:33:29;9.73;;;5.55;;
21418;SDS011;10870;51.384;10.316;2023-02-05T06:35:31;7.10;;;5.70;;
21418;SDS011;10870;51.384;10.316;2023-02-05T06:37:32;9.00;;;5.80;;
21418;SDS011;10870;51.384;10.316;2023-02-05T06:39:33;6.97;;;6.07;;
21418;SDS011;10870;51.384;10.316;2023-02-05T06:41:35;8.15;;;6.05;;
21418;SDS011;10870;51.384;10.316;2023-02-05T06:43:36;11.43;;;6.78;;
21418;SDS011;10870;51.384;10.316;2023-02-05T06:45:38;7.80;;;6.45;;
21418;SDS011;10870;51.384;10.316;2023-02-05T06:47:42;8.88;;;5.65;;
21418;SDS011;10870;51.384;10.316;2023-02-05T06:49:46;8.82;;;6.40;;
21418;SDS011;10870;51.384;10.316;2023-02-05T06:51:50;7.85;;;6.10;;
21418;SDS011;10870;51.384;10.316;2023-02-05T06:53:51;11.15;;;5.88;;
21418;SDS011;10870;51.384;10.316;2023-02-05T06:55:57;6.95;;;6.20;;
21418;SDS011;10870;51.384;10.316;2023-02-05T06:58:01;8.68;;;6.00;;
21418;SDS011;10870;51.384;10.316;2023-02-05T07:00:03;8.70;;;5.95;;
21418;SDS011;10870;51.384;10.316;2023-02-05T07:02:05;9.23;;;6.00;;
21418;SDS011;10870;51.384;10.316;2023-02-05T07:04:08;6.95;;;5.43;;
21418;SDS011;10870;51.384;10.316;2023-02-05T07:06:09;6.75;;;5.70;;
21418;SDS011;10870;51.384;10.316;2023-02-05T07:08:11;6.68;;;5.65;;
21418;SDS011;10870;51.384;10.316;2023-02-05T07:10:12;9.23;;;6.55;;
21418;SDS011;10870;51.384;10.316;2023-02-05T07:12:14;6.78;;;6.03;;
21418;SDS011;10870;51.384;10.316;2023-02-05T07:14:17;7.43;;;6.32;;
21418;SDS011;10870;51.384;10.316;2023-02-05T07:16:22;8.73;;;5.88;;
21418;SDS011;10870;51.384;10.316;2023-02-05T07:18:23;8.77;;;6.20;;
21418;SDS011;10870;51.384;10.316;2023-02-05T07:20:24;10.07;;;6.93;;
21418;SDS011;10870;51.384;10.316;2023-02-05T07:22:26;9.25;;;6.07;;
21418;SDS011;10870;51.384;10.316;2023-02-05T07:24:27;8.63;;;6.72;;
21418;SDS011;10870;51.384;10.316;2023-02-05T07:26:32;13.05;;;8.07;;
21418;SDS011;10870;51.384;10.316;2023-02-05T07:28:37;12.50;;;7.70;;
21418;SDS011;10870;51.384;10.316;2023-02-05T07:30:38;8.75;;;7.78;;
21418;SDS011;10870;51.384;10.316;2023-02-05T07:32:42;12.60;;;7.72;;
21418;SDS011;10870;51.384;10.316;2023-02-05T07:34:43;9.70;;;7.88;;
21418;SDS011;10870;51.384;10.316;2023-02-05T07:36:44;11.13;;;8.25;;
21418;SDS011;10870;51.384;10.316;2023-02-05T07:38:48;11.18;;;8.63;;
21418;SDS011;10870;51.384;10.316;2023-02-05T07:40:49;11.20;;;8.93;;
21418;SDS011;10870;51.384;10.316;2023-02-05T07:42:51;13.00;;;8.30;;
21418;SDS011;10870;51.384;10.316;2023-02-05T07:44:52;12.23;;;8.38;;
21418;SDS011;10870;51.384;10.316;2023-02-05T07:46:53;14.13;;;9.02;;
21418;SDS011;10870;51.384;10.316;2023-02-05T07:49:00;11.00;;;9.13;;
21418;SDS011;10870;51.384;10.316;2023-02-05T07:51:03;13.02;;;9.73;;
21418;SDS011;10870;51.384;10.316;2023-02-05T07:53:05;12.30;;;9.57;;
21418;SDS011;10870;51.384;10.316;2023-02-05T07:55:09;12.82;;;10.40;;
21418;SDS011;10870;51.384;10.316;2023-02-05T07:57:10;12.65;;;9.80;;
21418;SDS011;10870;51.384;10.316;2023-02-05T07:59:11;15.10;;;10.75;;
21418;SDS011;10870;51.384;10.316;2023-02-05T08:01:15;11.93;;;9.77;;
21418;SDS011;10870;51.384;10.316;2023-02-05T08:03:16;11.68;;;9.68;;
21418;SDS011;10870;51.384;10.316;2023-02-05T08:05:25;14.25;;;10.27;;
21418;SDS011;10870;51.384;10.316;2023-02-05T08:07:27;14.88;;;11.38;;
21418;SDS011;10870;51.384;10.316;2023-02-05T08:09:28;13.57;;;11.15;;
21418;SDS011;10870;51.384;10.316;2023-02-05T08:11:32;15.55;;;11.43;;
21418;SDS011;10870;51.384;10.316;2023-02-05T08:13:33;14.02;;;11.52;;
21418;SDS011;10870;51.384;10.316;2023-02-05T08:15:37;15.30;;;12.05;;
21418;SDS011;10870;51.384;10.316;2023-02-05T08:17:41;18.13;;;11.63;;
21418;SDS011;10870;51.384;10.316;2023-02-05T08:19:42;15.27;;;11.45;;
21418;SDS011;10870;51.384;10.316;2023-02-05T08:21:47;17.65;;;12.50;;
21418;SDS011;10870;51.384;10.316;2023-02-05T08:23:48;16.83;;;11.13;;
21418;SDS011;10870;51.384;10.316;2023-02-05T08:25:52;13.25;;;10.63;;
21418;SDS011;10870;51.384;10.316;2023-02-05T08:27:54;15.43;;;11.65;;
21418;SDS011;10870;51.384;10.316;2023-02-05T08:29:55;15.00;;;10.60;;
21418;SDS011;10870;51.384;10.316;2023-02-05T08:32:02;14.98;;;10.10;;
21418;SDS011;10870;51.384;10.316;2023-02-05T08:34:04;12.85;;;10.30;;
21418;SDS011;10870;51.384;10.316;2023-02-05T08:36:08;16.40;;;11.98;;
21418;SDS011;10870;51.384;10.316;2023-02-05T08:38:12;13.32;;;10.45;;
21418;SDS011;10870;51.384;10.316;2023-02-05T08:40:14;14.30;;;11.13;;
21418;SDS011;10870;51.384;10.316;2023-02-05T08:42:15;15.77;;;10.15;;
21418;SDS011;10870;51.384;10.316;2023-02-05T08:44:17;16.83;;;10.40;;
21418;SDS011;10870;51.384;10.316;2023-02-05T08:46:21;15.40;;;10.52;;
21418;SDS011;10870;51.384;10.316;2023-02-05T08:48:24;14.75;;;10.43;;
21418;SDS011;10870;51.384;10.316;2023-02-05T08:50:25;13.93;;;11.70;;
21418;SDS011;10870;51.384;10.316;2023-02-05T08:52:29;17.00;;;12.68;;
21418;SDS011;10870;51.384;10.316;2023-02-05T08:54:35;16.85;;;11.68;;
21418;SDS011;10870;51.384;10.316;2023-02-05T08:56:41;14.13;;;10.15;;
21418;SDS011;10870;51.384;10.316;2023-02-05T08:58:43;17.45;;;10.70;;
21418;SDS011;10870;51.384;10.316;2023-02-05T09:00:47;16.08;;;12.05;;
21418;SDS011;10870;51.384;10.316;2023-02-05T09:02:48;14.13;;;10.73;;
21418;SDS011;10870;51.384;10.316;2023-02-05T09:04:50;18.02;;;12.75;;
21418;SDS011;10870;51.384;10.316;2023-02-05T09:06:54;15.27;;;11.57;;
21418;SDS011;10870;51.384;10.316;2023-02-05T09:08:55;17.75;;;11.50;;
21418;SDS011;10870;51.384;10.316;2023-02-05T09:10:57;14.98;;;11.88;;
21418;SDS011;10870;51.384;10.316;2023-02-05T09:12:58;17.23;;;12.15;;
21418;SDS011;10870;51.384;10.316;2023-02-05T09:15:03;13.75;;;10.85;;
21418;SDS011;10870;51.384;10.316;2023-02-05T09:17:08;22.50;;;12.85;;
21418;SDS011;10870;51.384;10.316;2023-02-05T09:19:13;16.70;;;12.32;;
21418;SDS011;10870;51.384;10.316;2023-02-05T09:21:15;15.48;;;11.98;;
21418;SDS011;10870;51.384;10.316;2023-02-05T09:23:17;15.68;;;12.57;;
21418;SDS011;10870;51.384;10.316;2023-02-05T09:25:21;16.77;;;12.45;;
21418;SDS011;10870;51.384;10.316;2023-02-05T09:27:22;20.15;;;13.95;;
21418;SDS011;10870;51.384;10.316;2023-02-05T09:29:24;17.40;;;13.38;;
21418;SDS011;10870;51.384;10.316;2023-02-05T09:31:26;17.35;;;12.85;;
21418;SDS011;10870;51.384;10.316;2023-02-05T09:33:27;17.35;;;13.35;;
21418;SDS011;10870;51.384;10.316;2023-02-05T09:35:32;20.38;;;14.38;;
21418;SDS011;10870;51.384;10.316;2023-02-05T09:37:41;20.98;;;15.23;;
21418;SDS011;10870;51.384;10.316;2023-02-05T09:39:43;19.00;;;14.55;;
21418;SDS011;10870;51.384;10.316;2023-02-05T09:46:46;30.40;;;14.87;;
21418;SDS011;10870;51.384;10.316;2023-02-05T09:49:07;19.33;;;13.93;;
21418;SDS011;10870;51.384;10.316;2023-02-05T09:51:11;20.17;;;15.52;;
21418;SDS011;10870;51.384;10.316;2023-02-05T09:53:18;21.30;;;15.45;;
21418;SDS011;10870;51.384;10.316;2023-02-05T09:55:28;23.50;;;15.60;;
21418;SDS011;10870;51.384;10.316;2023-02-05T09:57:34;20.08;;;15.15;;
21418;SDS011;10870;51.384;10.316;2023-02-05T09:59:36;18.25;;;13.35;;
21418;SDS011;10870;51.384;10.316;2023-02-05T10:01:45;17.38;;;13.30;;
21418;SDS011;10870;51.384;10.316;2023-02-05T10:03:53;14.30;;;12.35;;
21418;SDS011;10870;51.384;10.316;2023-02-05T10:08:02;17.48;;;12.95;;
21418;SDS011;10870;51.384;10.316;2023-02-05T10:12:52;17.17;;;13.10;;
21418;SDS011;10870;51.384;10.316;2023-02-05T10:19:22;22.75;;;17.27;;
21418;SDS011;10870;51.384;10.316;2023-02-05T10:26:03;19.75;;;13.38;;
21418;SDS011;10870;51.384;10.316;2023-02-05T10:28:19;18.33;;;13.30;;
21418;SDS011;10870;51.384;10.316;2023-02-05T10:33:16;21.05;;;13.48;;
21418;SDS011;10870;51.384;10.316;2023-02-05T10:35:04;20.88;;;13.85;;
21418;SDS011;10870;51.384;10.316;2023-02-05T10:37:17;14.75;;;11.32;;
21418;SDS011;10870;51.384;10.316;2023-02-05T10:39:19;19.35;;;13.13;;
21418;SDS011;10870;51.384;10.316;2023-02-05T10:43:25;18.10;;;12.93;;
21418;SDS011;10870;51.384;10.316;2023-02-05T10:45:29;14.73;;;12.40;;
21418;SDS011;10870;51.384;10.316;2023-02-05T10:51:55;18.77;;;11.35;;
21418;SDS011;10870;51.384;10.316;2023-02-05T10:53:59;14.30;;;11.25;;
21418;SDS011;10870;51.384;10.316;2023-02-05T10:56:04;15.43;;;11.70;;
21418;SDS011;10870;51.384;10.316;2023-02-05T11:00:30;18.70;;;13.68;;
21418;SDS011;10870;51.384;10.316;2023-02-05T11:02:37;22.70;;;15.95;;
21418;SDS011;10870;51.384;10.316;2023-02-05T11:04:43;19.98;;;16.40;;
21418;SDS011;10870;51.384;10.316;2023-02-05T11:06:47;24.02;;;15.82;;
21418;SDS011;10870;51.384;10.316;2023-02-05T11:08:54;16.92;;;13.05;;
21418;SDS011;10870;51.384;10.316;2023-02-05T11:10:55;19.52;;;14.50;;
21418;SDS011;10870;51.384;10.316;2023-02-05T11:15:03;20.55;;;14.07;;
21418;SDS011;10870;51.384;10.316;2023-02-05T11:19:24;16.63;;;13.05;;
21418;SDS011;10870;51.384;10.316;2023-02-05T11:23:55;16.13;;;12.85;;
21418;SDS011;10870;51.384;10.316;2023-02-05T11:26:00;20.50;;;12.17;;
21418;SDS011;10870;51.384;10.316;2023-02-05T11:28:14;14.70;;;11.35;;
21418;SDS011;10870;51.384;10.316;2023-02-05T11:30:26;14.55;;;10.93;;
21418;SDS011;10870;51.384;10.316;2023-02-05T11:32:33;15.05;;;12.68;;
21418;SDS011;10870;51.384;10.316;2023-02-05T11:34:40;15.48;;;12.40;;
21418;SDS011;10870;51.384;10.316;2023-02-05T11:36:48;18.50;;;13.07;;
21418;SDS011;10870;51.384;10.316;2023-02-05T11:38:51;18.17;;;12.43;;
21418;SDS011;10870;51.384;10.316;2023-02-05T11:40:57;15.68;;;12.02;;
21418;SDS011;10870;51.384;10.316;2023-02-05T11:45:01;16.98;;;13.15;;
21418;SDS011;10870;51.384;10.316;2023-02-05T11:47:02;29.90;;;14.10;;
21418;SDS011;10870;51.384;10.316;2023-02-05T11:49:04;24.70;;;18.00;;
21418;SDS011;10870;51.384;10.316;2023-02-05T11:51:08;24.75;;;18.55;;
21418;SDS011;10870;51.384;10.316;2023-02-05T11:53:16;27.77;;;20.17;;
21418;SDS011;10870;51.384;10.316;2023-02-05T11:55:25;28.15;;;20.52;;
21418;SDS011;10870;51.384;10.316;2023-02-05T11:57:35;24.00;;;18.70;;
21418;SDS011;10870;51.384;10.316;2023-02-05T11:59:38;20.65;;;14.93;;
21418;SDS011;10870;51.384;10.316;2023-02-05T12:01:39;20.83;;;14.88;;
21418;SDS011;10870;51.384;10.316;2023-02-05T12:03:46;19.67;;;14.98;;
21418;SDS011;10870;51.384;10.316;2023-02-05T12:06:06;19.02;;;12.27;;
21418;SDS011;10870;51.384;10.316;2023-02-05T12:08:11;18.27;;;13.82;;
21418;SDS011;10870;51.384;10.316;2023-02-05T12:10:39;21.80;;;14.80;;
21418;SDS011;10870;51.384;10.316;2023-02-05T12:12:39;18.75;;;14.10;;
21418;SDS011;10870;51.384;10.316;2023-02-05T12:14:44;21.63;;;14.07;;
21418;SDS011;10870;51.384;10.316;2023-02-05T12:21:22;19.38;;;13.48;;
21418;SDS011;10870;51.384;10.316;2023-02-05T12:25:45;27.05;;;17.92;;
21418;SDS011;10870;51.384;10.316;2023-02-05T12:30:03;30.23;;;23.10;;
21418;SDS011;10870;51.384;10.316;2023-02-05T12:39:22;37.88;;;26.35;;
21418;SDS011;10870;51.384;10.316;2023-02-05T12:41:32;37.67;;;28.20;;
21418;SDS011;10870;51.384;10.316;2023-02-05T12:43:37;38.17;;;27.92;;
21418;SDS011;10870;51.384;10.316;2023-02-05T12:50:32;31.70;;;24.58;;
21418;SDS011;10870;51.384;10.316;2023-02-05T12:52:51;40.10;;;27.67;;
21418;SDS011;10870;51.384;10.316;2023-02-05T12:57:10;37.20;;;29.25;;
21418;SDS011;10870;51.384;10.316;2023-02-05T12:59:14;42.10;;;27.48;;
21418;SDS011;10870;51.384;10.316;2023-02-05T13:01:20;40.47;;;27.25;;
21418;SDS011;10870;51.384;10.316;2023-02-05T13:03:27;30.52;;;23.77;;
21418;SDS011;10870;51.384;10.316;2023-02-05T13:05:33;33.00;;;25.52;;
21418;SDS011;10870;51.384;10.316;2023-02-05T13:07:48;34.47;;;23.50;;
21418;SDS011;10870;51.384;10.316;2023-02-05T13:09:54;39.92;;;26.60;;
21418;SDS011;10870;51.384;10.316;2023-02-05T13:12:01;33.85;;;25.15;;
21418;SDS011;10870;51.384;10.316;2023-02-05T13:14:16;35.30;;;25.63;;
21418;SDS011;10870;51.384;10.316;2023-02-05T13:16:22;41.17;;;30.88;;
21418;SDS011;10870;51.384;10.316;2023-02-05T13:18:31;41.17;;;28.05;;
21418;SDS011;10870;51.384;10.316;2023-02-05T13:20:37;39.63;;;26.75;;
21418;SDS011;10870;51.384;10.316;2023-02-05T13:23:03;36.97;;;27.50;;
21418;SDS011;10870;51.384;10.316;2023-02-05T13:25:28;43.22;;;30.58;;
21418;SDS011;10870;51.384;10.316;2023-02-05T13:27:53;26.83;;;21.13;;
21418;SDS011;10870;51.384;10.316;2023-02-05T13:30:20;28.50;;;20.98;;
21418;SDS011;10870;51.384;10.316;2023-02-05T13:32:25;29.65;;;19.45;;
21418;SDS011;10870;51.384;10.316;2023-02-05T13:34:34;28.77;;;18.88;;
21418;SDS011;10870;51.384;10.316;2023-02-05T13:41:31;30.88;;;19.50;;